Time;durP1;ratioP1;P1;durP2;ratioP2;P2;SDS_P1;SDS_P2;PMS_P1;PMS_P2;Temp;Humidity;BMP_temperature;BMP_pressure;BME280_temperature;BME280_humidity;BME280_pressure;Samples;Min_cycle;Max_cycle;Signal;HPM_P1;HPM_P2
2023/03/01 00:01:18;;;;;;;31.88;24.45;;;1.00;99.90;;;;;;5087375;28;20055;-83
2023/03/01 00:03:44;;;;;;;31.63;22.92;;;1.10;99.90;;;;;;5088412;28;20044;-82
2023/03/01 00:06:10;;;;;;;28.42;22.45;;;1.10;99.90;;;;;;5086907;28;20055;-82
2023/03/01 00:08:36;;;;;;;26.48;22.38;;;1.10;99.90;;;;;;5080959;28;21787;-82
2023/03/01 00:11:07;;;;;;;30.40;26.20;;;1.10;99.90;;;;;;5086648;28;20119;-83
2023/03/01 00:13:33;;;;;;;29.75;23.50;;;1.10;99.90;;;;;;5083618;28;20044;-82
2023/03/01 00:16:01;;;;;;;31.90;25.02;;;1.10;99.90;;;;;;5087236;28;20051;-82
2023/03/01 00:18:26;;;;;;;29.35;25.30;;;1.20;99.90;;;;;;5087814;28;20059;-83
2023/03/01 00:20:55;;;;;;;32.78;25.85;;;1.20;99.90;;;;;;5083923;28;20050;-83
2023/03/01 00:23:22;;;;;;;27.50;22.85;;;1.20;99.90;;;;;;5081411;28;20052;-82
2023/03/01 00:25:48;;;;;;;36.33;27.57;;;1.10;99.90;;;;;;5083035;28;20043;-83
2023/03/01 00:28:14;;;;;;;34.58;27.52;;;1.10;99.90;;;;;;5084966;28;20154;-83
2023/03/01 00:30:39;;;;;;;37.05;29.38;;;1.10;99.90;;;;;;5083778;28;20036;-82
2023/03/01 00:33:05;;;;;;;38.00;31.30;;;1.10;99.90;;;;;;5088764;28;20047;-83
2023/03/01 00:35:32;;;;;;;35.67;28.90;;;1.20;99.90;;;;;;5085291;28;20072;-83
2023/03/01 00:37:59;;;;;;;36.35;30.67;;;1.20;99.90;;;;;;5086612;28;20142;-83
2023/03/01 00:40:26;;;;;;;37.13;29.88;;;1.20;99.90;;;;;;5084615;28;20036;-83
2023/03/01 00:42:51;;;;;;;40.33;30.50;;;1.20;99.90;;;;;;5081056;28;20086;-83
2023/03/01 00:45:17;;;;;;;37.25;30.88;;;1.30;99.90;;;;;;5090002;28;20087;-83
2023/03/01 00:47:43;;;;;;;34.03;28.25;;;1.30;99.90;;;;;;5088605;28;20357;-83
2023/03/01 00:50:10;;;;;;;33.35;28.83;;;1.20;99.90;;;;;;5089271;28;20453;-83
2023/03/01 00:52:36;;;;;;;37.53;28.55;;;1.20;99.90;;;;;;5088482;28;20048;-83
2023/03/01 00:55:02;;;;;;;35.38;28.23;;;1.20;99.90;;;;;;5090273;28;20043;-83
2023/03/01 00:57:28;;;;;;;33.00;27.48;;;1.20;99.90;;;;;;5085663;28;20040;-83
2023/03/01 00:59:53;;;;;;;31.05;26.30;;;1.10;99.90;;;;;;5087346;28;20456;-83
2023/03/01 01:02:19;;;;;;;32.45;25.55;;;1.10;99.90;;;;;;5086855;28;20044;-83
2023/03/01 01:04:46;;;;;;;32.67;27.40;;;1.00;99.90;;;;;;5087216;28;20048;-83
2023/03/01 01:07:13;;;;;;;32.97;26.80;;;0.90;99.90;;;;;;5086531;28;20044;-83
2023/03/01 01:09:38;;;;;;;30.70;27.17;;;0.90;99.90;;;;;;5083435;28;20187;-83
2023/03/01 01:12:04;;;;;;;30.33;25.52;;;0.80;99.90;;;;;;5088682;28;20446;-82
2023/03/01 01:14:30;;;;;;;30.65;25.65;;;0.70;99.90;;;;;;5086590;28;20593;-83
2023/03/01 01:16:56;;;;;;;30.23;25.50;;;0.60;99.90;;;;;;5088322;28;20048;-83
2023/03/01 01:19:23;;;;;;;33.50;28.10;;;0.60;99.90;;;;;;5083510;28;20433;-82
2023/03/01 01:21:49;;;;;;;29.95;26.58;;;0.60;99.90;;;;;;5088730;28;20433;-83
2023/03/01 01:24:16;;;;;;;30.02;25.88;;;0.60;99.90;;;;;;5081997;28;20168;-83
2023/03/01 01:26:42;;;;;;;31.83;26.80;;;0.50;99.90;;;;;;5083982;28;20483;-83
2023/03/01 01:29:08;;;;;;;32.03;26.52;;;0.50;99.90;;;;;;5079461;28;20488;-79
2023/03/01 01:31:35;;;;;;;32.50;24.52;;;0.50;99.90;;;;;;5080557;28;20105;-79
2023/03/01 01:34:04;;;;;;;32.70;25.55;;;0.40;99.90;;;;;;5083815;28;20055;-79
2023/03/01 01:36:30;;;;;;;32.10;25.25;;;0.30;99.90;;;;;;5084205;28;20032;-79
2023/03/01 01:38:56;;;;;;;30.08;25.13;;;0.30;99.90;;;;;;5080978;28;20093;-79
2023/03/01 01:41:24;;;;;;;33.20;25.35;;;0.30;99.90;;;;;;5085438;28;20040;-79
2023/03/01 01:44:20;;;;;;;30.00;24.55;;;0.20;99.90;;;;;;5084056;28;20407;-80
2023/03/01 01:46:52;;;;;;;32.33;23.80;;;0.20;99.90;;;;;;5081289;28;20124;-80
2023/03/01 01:49:42;;;;;;;31.10;24.80;;;0.10;99.90;;;;;;5084322;28;20039;-80
2023/03/01 01:52:17;;;;;;;31.33;25.60;;;0.10;99.90;;;;;;5084145;28;20044;-80
2023/03/01 01:55:15;;;;;;;31.17;25.25;;;0.00;99.90;;;;;;5082621;28;20388;-80
2023/03/01 01:57:54;;;;;;;32.05;24.58;;;0.00;99.90;;;;;;5073101;28;20044;-79
2023/03/01 02:00:24;;;;;;;30.83;23.50;;;-0.10;99.90;;;;;;5078115;28;20503;-79
2023/03/01 02:02:54;;;;;;;30.58;24.88;;;-0.10;99.90;;;;;;5085546;28;20052;-79
2023/03/01 02:05:38;;;;;;;28.92;24.45;;;-0.20;99.90;;;;;;5085263;28;20058;-80
2023/03/01 02:08:03;;;;;;;37.90;26.30;;;-0.20;99.90;;;;;;5084560;28;20051;-80
2023/03/01 02:10:33;;;;;;;34.03;28.15;;;-0.20;99.90;;;;;;5078172;28;20028;-80
2023/03/01 02:12:59;;;;;;;37.65;28.50;;;-0.20;99.90;;;;;;5085839;28;20113;-80
2023/03/01 02:15:26;;;;;;;33.03;24.90;;;-0.20;99.90;;;;;;5082021;28;20150;-79
2023/03/01 02:17:53;;;;;;;31.52;24.77;;;-0.30;99.90;;;;;;5084773;28;20792;-80
2023/03/01 02:20:40;;;;;;;31.30;25.27;;;-0.30;99.90;;;;;;5086041;28;20051;-80
2023/03/01 02:23:07;;;;;;;29.77;24.98;;;-0.30;99.90;;;;;;5085056;28;20040;-79
2023/03/01 02:25:35;;;;;;;31.27;24.80;;;-0.30;99.90;;;;;;5082651;28;20403;-79
2023/03/01 02:28:16;;;;;;;29.88;25.35;;;-0.30;99.90;;;;;;5083080;28;20048;-79
2023/03/01 02:33:32;;;;;;;32.65;25.42;;;-0.40;99.90;;;;;;5089445;28;20113;-80
2023/03/01 02:36:00;;;;;;;31.50;24.35;;;-0.40;99.90;;;;;;5085854;28;20047;-80
2023/03/01 02:38:25;;;;;;;;;;;-0.40;99.90;;;;;;5089104;28;20088;-80
2023/03/01 02:40:51;;;;;;;30.17;24.55;;;-0.50;99.90;;;;;;5092441;28;19919;-79
2023/03/01 02:43:20;;;;;;;32.58;25.88;;;-0.50;99.90;;;;;;5085912;28;20044;-80
2023/03/01 02:45:51;;;;;;;29.23;23.92;;;-0.50;99.90;;;;;;5086483;28;20479;-80
2023/03/01 02:48:18;;;;;;;32.22;25.88;;;-0.50;99.90;;;;;;5089580;28;20150;-79
2023/03/01 02:51:09;;;;;;;30.48;23.67;;;-0.50;99.90;;;;;;5090793;28;20036;-80
2023/03/01 02:53:56;;;;;;;29.30;24.08;;;-0.50;99.90;;;;;;5122905;27;20044;-80
2023/03/01 02:56:22;;;;;;;31.98;23.77;;;-0.50;99.90;;;;;;5091440;28;20134;-80
2023/03/01 02:58:51;;;;;;;30.10;24.17;;;-0.60;99.90;;;;;;5090181;28;20124;-80
2023/03/01 03:01:20;;;;;;;31.00;24.63;;;-0.50;99.90;;;;;;5086371;28;20055;-80
2023/03/01 03:03:46;;;;;;;29.80;24.52;;;-0.60;99.90;;;;;;5088772;28;20533;-80
2023/03/01 03:06:12;;;;;;;29.48;24.00;;;-0.60;99.90;;;;;;5090534;28;20052;-80
2023/03/01 03:08:38;;;;;;;27.15;21.85;;;-0.60;99.90;;;;;;5090489;28;20048;-80
2023/03/01 03:11:04;;;;;;;30.75;24.13;;;-0.60;99.90;;;;;;5085109;28;20109;-79
2023/03/01 03:13:30;;;;;;;28.08;22.77;;;-0.60;99.90;;;;;;5089077;28;20399;-80
2023/03/01 03:15:56;;;;;;;31.33;23.75;;;-0.70;99.90;;;;;;5086205;28;20051;-79
2023/03/01 03:18:22;;;;;;;29.20;23.75;;;-0.70;99.90;;;;;;5072913;28;20071;-80
2023/03/01 03:20:52;;;;;;;29.83;24.43;;;-0.70;99.90;;;;;;5076472;28;20052;-79
2023/03/01 03:23:19;;;;;;;29.05;23.80;;;-0.60;99.90;;;;;;5090598;28;20152;-80
2023/03/01 03:25:48;;;;;;;28.45;22.92;;;-0.60;99.90;;;;;;5087693;28;20050;-80
2023/03/01 03:28:15;;;;;;;31.15;23.55;;;-0.60;99.90;;;;;;5081348;28;20063;-80
2023/03/01 03:30:42;;;;;;;31.67;24.88;;;-0.60;99.90;;;;;;5078415;28;20052;-80
2023/03/01 03:33:09;;;;;;;31.33;24.60;;;-0.70;99.90;;;;;;5088020;28;20048;-80
2023/03/01 03:35:43;;;;;;;29.75;24.67;;;-0.70;99.90;;;;;;5084294;28;20044;-80
2023/03/01 03:38:15;;;;;;;33.53;26.73;;;-0.70;99.90;;;;;;5080969;28;20499;-80
2023/03/01 03:40:49;;;;;;;31.80;25.27;;;-0.70;99.90;;;;;;5081023;28;20036;-80
2023/03/01 03:43:21;;;;;;;29.80;24.33;;;-0.70;99.90;;;;;;5082145;28;20041;-80
2023/03/01 03:45:49;;;;;;;29.20;23.98;;;-0.70;99.90;;;;;;5086634;28;20067;-80
2023/03/01 03:48:15;;;;;;;30.88;24.33;;;-0.70;99.90;;;;;;5087386;28;20492;-80
2023/03/01 03:50:41;;;;;;;33.75;24.35;;;-0.80;99.90;;;;;;5089551;28;20038;-80
2023/03/01 03:53:10;;;;;;;32.95;25.95;;;-0.80;99.90;;;;;;5083039;28;20051;-80
2023/03/01 03:55:38;;;;;;;31.38;24.98;;;-0.80;99.90;;;;;;5087703;28;20070;-79
2023/03/01 03:58:07;;;;;;;29.75;24.70;;;-0.80;99.90;;;;;;5087195;28;20101;-80
2023/03/01 04:00:34;;;;;;;28.38;23.73;;;-0.80;99.90;;;;;;5084408;28;20049;-80
2023/03/01 04:03:00;;;;;;;31.13;24.67;;;-0.90;99.90;;;;;;5086196;28;20131;-80
2023/03/01 04:05:27;;;;;;;30.42;24.13;;;-0.90;99.90;;;;;;5087512;28;20036;-80
2023/03/01 04:08:00;;;;;;;30.53;24.37;;;-0.90;99.90;;;;;;5082847;28;20455;-80
2023/03/01 04:10:28;;;;;;;29.90;24.00;;;-1.00;99.90;;;;;;5083270;28;21065;-80
2023/03/01 04:12:55;;;;;;;30.55;24.67;;;-1.00;99.90;;;;;;5085514;28;20155;-80
2023/03/01 04:15:23;;;;;;;29.65;24.23;;;-1.00;99.90;;;;;;5087492;28;20052;-80
2023/03/01 04:17:51;;;;;;;30.98;24.23;;;-1.00;99.90;;;;;;5082031;28;20036;-81
2023/03/01 04:20:26;;;;;;;31.02;25.00;;;-1.00;99.90;;;;;;5090235;28;20507;-81
2023/03/01 04:22:57;;;;;;;30.80;25.25;;;-1.00;99.90;;;;;;5087240;28;20044;-81
2023/03/01 04:25:23;;;;;;;31.55;26.70;;;-1.00;99.90;;;;;;5084305;28;20510;-81
2023/03/01 04:27:49;;;;;;;31.40;25.15;;;-1.10;99.90;;;;;;5086719;28;20036;-81
2023/03/01 04:30:16;;;;;;;30.35;26.83;;;-1.10;99.90;;;;;;5088295;28;20048;-81
2023/03/01 04:32:42;;;;;;;33.97;25.83;;;-1.10;99.90;;;;;;5081146;28;20040;-80
2023/03/01 04:35:08;;;;;;;33.47;26.60;;;-1.10;99.90;;;;;;5085881;28;20096;-81
2023/03/01 04:37:34;;;;;;;31.88;26.33;;;-1.10;99.90;;;;;;5084803;28;20135;-81
2023/03/01 04:40:01;;;;;;;31.45;25.05;;;-1.10;99.90;;;;;;5084881;28;20044;-81
2023/03/01 04:42:26;;;;;;;31.95;24.85;;;-1.10;99.90;;;;;;5079879;28;20662;-81
2023/03/01 04:44:52;;;;;;;33.22;24.83;;;-1.10;99.90;;;;;;5082237;28;20116;-81
2023/03/01 04:47:18;;;;;;;32.42;25.55;;;-1.10;99.90;;;;;;5088617;28;20048;-81
2023/03/01 04:49:43;;;;;;;33.45;25.65;;;-1.20;99.90;;;;;;5072678;28;20072;-81
2023/03/01 04:52:09;;;;;;;32.28;25.33;;;-1.10;99.90;;;;;;5088611;28;20051;-81
2023/03/01 04:54:35;;;;;;;30.85;24.73;;;-1.10;99.90;;;;;;5089235;28;20460;-81
2023/03/01 04:57:02;;;;;;;31.23;24.60;;;-1.10;99.90;;;;;;5087748;28;20043;-81
2023/03/01 04:59:29;;;;;;;31.45;24.30;;;-1.20;99.90;;;;;;5087127;28;20052;-78
2023/03/01 05:01:57;;;;;;;29.55;24.27;;;-1.20;99.90;;;;;;5087177;28;20059;-80
2023/03/01 05:04:23;;;;;;;31.92;26.00;;;-1.20;99.90;;;;;;5087917;28;20445;-81
2023/03/01 05:06:50;;;;;;;32.33;25.30;;;-1.20;99.90;;;;;;5088415;28;20058;-81
2023/03/01 05:09:15;;;;;;;33.40;24.58;;;-1.20;99.90;;;;;;5082987;28;20085;-81
2023/03/01 05:11:41;;;;;;;30.90;24.73;;;-1.10;99.90;;;;;;5088054;28;20390;-80
2023/03/01 05:14:09;;;;;;;30.55;24.73;;;-1.10;99.90;;;;;;5084618;28;20087;-81
2023/03/01 05:16:36;;;;;;;32.15;24.83;;;-1.10;99.90;;;;;;5086098;28;20051;-80
2023/03/01 05:19:11;;;;;;;33.70;26.02;;;-1.10;99.90;;;;;;5081233;28;20052;-81
2023/03/01 05:22:01;;;;;;;30.33;24.00;;;-1.10;99.90;;;;;;5085113;28;20036;-81
2023/03/01 05:24:23;;;;;;;30.70;22.83;;;-1.10;99.90;;;;;;5076129;28;20051;-80
2023/03/01 05:26:51;;;;;;;32.13;25.05;;;-1.20;99.90;;;;;;5082307;28;20050;-81
2023/03/01 05:29:24;;;;;;;31.77;24.30;;;-1.30;99.90;;;;;;5084821;28;20076;-81
2023/03/01 05:32:00;;;;;;;30.52;24.00;;;-1.30;99.90;;;;;;5081628;28;20103;-80
2023/03/01 05:34:36;;;;;;;32.97;25.73;;;-1.20;99.90;;;;;;5085107;28;20113;-81
2023/03/01 05:37:02;;;;;;;31.48;24.48;;;-1.20;99.90;;;;;;5075599;28;20119;-80
2023/03/01 05:39:29;;;;;;;33.13;25.20;;;-1.20;99.90;;;;;;5082986;28;20072;-81
2023/03/01 05:42:00;;;;;;;33.17;26.50;;;-1.30;99.90;;;;;;5084852;28;20044;-80
2023/03/01 05:44:28;;;;;;;32.30;24.92;;;-1.30;99.90;;;;;;5086452;28;20485;-80
2023/03/01 05:46:54;;;;;;;30.88;24.40;;;-1.20;99.90;;;;;;5086954;28;20119;-81
2023/03/01 05:49:20;;;;;;;28.92;23.30;;;-1.30;99.90;;;;;;5085586;28;20123;-81
2023/03/01 05:51:51;;;;;;;30.63;25.10;;;-1.20;99.90;;;;;;5080411;28;20086;-81
2023/03/01 05:54:17;;;;;;;32.13;24.15;;;-1.20;99.90;;;;;;5080129;28;20558;-81
2023/03/01 05:56:43;;;;;;;31.42;24.85;;;-1.20;99.90;;;;;;5085867;28;20104;-81
2023/03/01 05:59:09;;;;;;;30.23;23.15;;;-1.20;99.90;;;;;;5086330;28;20088;-80
2023/03/01 06:01:36;;;;;;;28.33;23.70;;;-1.30;99.90;;;;;;5077871;28;20080;-81
2023/03/01 06:04:02;;;;;;;30.35;23.50;;;-1.30;99.90;;;;;;5086205;28;20097;-80
2023/03/01 06:06:28;;;;;;;30.10;23.75;;;-1.30;99.90;;;;;;5087135;28;20044;-81
2023/03/01 06:08:54;;;;;;;29.67;22.80;;;-1.40;99.90;;;;;;5088702;28;20086;-81
2023/03/01 06:11:21;;;;;;;29.42;23.80;;;-1.40;99.90;;;;;;5090922;28;20063;-81
2023/03/01 06:13:47;;;;;;;33.30;24.50;;;-1.40;99.90;;;;;;5087961;28;20032;-81
2023/03/01 06:16:14;;;;;;;29.98;22.98;;;-1.40;99.90;;;;;;5090633;28;20040;-81
2023/03/01 06:18:39;;;;;;;33.15;25.67;;;-1.40;99.90;;;;;;5091075;28;20040;-81
2023/03/01 06:21:07;;;;;;;33.83;26.23;;;-1.40;99.90;;;;;;5093146;28;20438;-81
2023/03/01 06:23:33;;;;;;;34.22;27.42;;;-1.30;99.90;;;;;;5081515;28;20040;-81
2023/03/01 06:25:58;;;;;;;33.75;27.52;;;-1.30;99.90;;;;;;5088607;28;20077;-81
2023/03/01 06:28:24;;;;;;;37.05;27.92;;;-1.40;99.90;;;;;;5090002;28;20044;-81
2023/03/01 06:30:50;;;;;;;37.72;27.75;;;-1.30;99.90;;;;;;5081789;28;20986;-81
2023/03/01 06:33:16;;;;;;;37.95;28.83;;;-1.30;99.90;;;;;;5086957;28;20036;-75
2023/03/01 06:35:41;;;;;;;35.38;27.83;;;-1.30;99.90;;;;;;5085058;28;20410;-75
2023/03/01 06:38:07;;;;;;;37.78;28.50;;;-1.20;99.90;;;;;;5087568;28;20047;-82
2023/03/01 06:40:35;;;;;;;37.00;28.52;;;-1.20;99.90;;;;;;5088411;28;20534;-81
2023/03/01 06:43:00;;;;;;;;;;;-1.10;99.90;;;;;;5079702;28;20062;-82
2023/03/01 06:45:29;;;;;;;36.80;27.65;;;-1.00;99.90;;;;;;5091317;28;19942;-81
2023/03/01 06:48:05;;;;;;;33.08;27.13;;;-0.90;99.90;;;;;;5086421;28;20032;-81
2023/03/01 06:50:31;;;;;;;35.42;28.98;;;-0.90;99.90;;;;;;5089203;28;20490;-82
2023/03/01 06:52:57;;;;;;;35.03;28.85;;;-0.80;99.90;;;;;;5091131;28;20399;-82
2023/03/01 06:55:23;;;;;;;36.97;29.67;;;-0.80;99.90;;;;;;5089578;28;20046;-77
2023/03/01 06:57:53;;;;;;;37.35;28.75;;;-0.70;99.90;;;;;;5089667;28;20426;-80
2023/03/01 07:00:20;;;;;;;36.95;29.15;;;-0.70;99.90;;;;;;5085596;28;20083;-79
2023/03/01 07:02:45;;;;;;;35.55;28.08;;;-0.60;99.90;;;;;;5088260;28;20044;-79
2023/03/01 07:05:11;;;;;;;35.78;28.48;;;-0.50;99.90;;;;;;5090997;28;20092;-79
2023/03/01 07:07:36;;;;;;;35.85;29.52;;;-0.50;99.90;;;;;;5085012;28;20544;-78
2023/03/01 07:10:06;;;;;;;43.55;35.80;;;-0.50;99.90;;;;;;5084530;28;20070;-79
2023/03/01 07:12:32;;;;;;;42.60;33.58;;;-0.40;99.90;;;;;;5086003;28;20063;-79
2023/03/01 07:14:58;;;;;;;40.88;31.55;;;-0.40;99.90;;;;;;5081436;28;20041;-79
2023/03/01 07:17:24;;;;;;;36.65;30.25;;;-0.40;99.90;;;;;;5083055;28;20055;-79
2023/03/01 07:19:49;;;;;;;37.03;31.38;;;-0.30;99.90;;;;;;5090601;28;20088;-79
2023/03/01 07:22:15;;;;;;;38.90;30.85;;;-0.30;99.90;;;;;;5086639;28;20040;-80
2023/03/01 07:24:41;;;;;;;38.08;30.90;;;-0.30;99.90;;;;;;5090381;28;20170;-79
2023/03/01 07:27:07;;;;;;;37.65;30.83;;;-0.20;99.90;;;;;;5083372;28;20423;-80
2023/03/01 07:29:36;;;;;;;40.92;31.92;;;-0.10;99.90;;;;;;5087542;28;20044;-79
2023/03/01 07:32:02;;;;;;;37.80;30.20;;;-0.10;99.90;;;;;;5082433;28;20044;-79
2023/03/01 07:34:27;;;;;;;41.55;31.45;;;0.00;99.90;;;;;;5087359;28;20052;-79
2023/03/01 07:36:53;;;;;;;41.58;32.08;;;0.10;99.90;;;;;;5088874;28;20104;-80
2023/03/01 07:39:19;;;;;;;39.75;32.42;;;0.20;99.90;;;;;;5085491;28;20059;-80
2023/03/01 07:41:45;;;;;;;42.30;32.47;;;0.30;99.90;;;;;;5087685;28;20506;-80
2023/03/01 07:44:11;;;;;;;37.67;32.17;;;0.40;99.90;;;;;;5090658;28;20437;-79
2023/03/01 07:46:37;;;;;;;42.72;33.33;;;0.50;99.90;;;;;;5092545;28;20058;-80
2023/03/01 07:49:02;;;;;;;41.15;31.75;;;0.50;99.90;;;;;;5089436;28;20048;-79
2023/03/01 07:51:28;;;;;;;40.30;30.77;;;0.60;99.90;;;;;;5090293;28;21035;-80
2023/03/01 07:53:54;;;;;;;39.28;31.40;;;0.70;99.90;;;;;;5123011;27;20433;-80
2023/03/01 07:56:21;;;;;;;37.55;29.55;;;0.80;99.90;;;;;;5100670;28;20048;-80
2023/03/01 07:58:47;;;;;;;;;;;0.90;99.90;;;;;;5093466;28;20053;-79
2023/03/01 08:01:19;;;;;;;37.30;29.73;;;0.90;99.90;;;;;;5092975;28;19946;-80
2023/03/01 08:03:44;;;;;;;38.85;29.58;;;1.00;99.90;;;;;;5088042;28;20048;-78
2023/03/01 08:06:12;;;;;;;33.63;29.15;;;1.00;99.90;;;;;;5080830;28;20040;-75
2023/03/01 08:08:38;;;;;;;37.78;28.98;;;1.10;99.90;;;;;;5089976;28;20036;-81
2023/03/01 08:11:05;;;;;;;31.73;27.52;;;1.20;99.90;;;;;;5088385;28;20089;-77
2023/03/01 08:13:31;;;;;;;;;;;1.20;99.90;;;;;;5084546;28;20085;-77
2023/03/01 08:16:08;;;;;;;32.92;27.25;;;1.30;99.90;;;;;;5083469;28;20404;-77
2023/03/01 08:18:33;;;;;;;35.10;29.90;;;1.30;99.90;;;;;;5083373;28;20051;-78
2023/03/01 08:21:04;;;;;;;33.65;27.85;;;1.40;99.90;;;;;;5090050;28;20298;-81
2023/03/01 08:23:30;;;;;;;31.50;26.25;;;1.50;99.90;;;;;;5089585;28;20355;-82
2023/03/01 08:26:08;;;;;;;31.17;25.63;;;1.50;99.90;;;;;;5090539;28;20047;-82
2023/03/01 08:28:34;;;;;;;30.40;26.48;;;1.60;99.90;;;;;;5090528;28;20414;-81
2023/03/01 08:31:00;;;;;;;30.67;25.73;;;1.70;99.90;;;;;;5088802;28;20044;-85
2023/03/01 08:33:26;;;;;;;27.50;21.98;;;1.70;99.90;;;;;;5087039;28;20047;-86
2023/03/01 08:35:51;;;;;;;28.70;23.05;;;1.80;99.90;;;;;;5088293;28;20489;-85
2023/03/01 08:38:17;;;;;;;25.90;19.60;;;1.90;99.90;;;;;;5089529;28;20368;-85
2023/03/01 08:40:43;;;;;;;22.33;18.75;;;2.00;99.90;;;;;;5088733;28;20367;-83
2023/03/01 08:43:08;;;;;;;18.45;15.45;;;2.10;99.90;;;;;;5086861;28;20072;-87
2023/03/01 08:45:36;;;;;;;21.10;16.98;;;2.10;99.90;;;;;;5085673;28;20119;-79
2023/03/01 08:48:02;;;;;;;24.70;17.98;;;2.20;99.90;;;;;;5083705;28;20036;-82
2023/03/01 08:50:27;;;;;;;24.80;17.67;;;2.30;99.90;;;;;;5089727;28;20054;-75
2023/03/01 08:52:53;;;;;;;18.13;15.88;;;2.30;99.90;;;;;;5090106;28;20056;-78
2023/03/01 08:55:19;;;;;;;20.52;15.38;;;2.40;99.90;;;;;;5089560;28;20054;-78
2023/03/01 08:57:44;;;;;;;18.48;15.90;;;2.50;99.90;;;;;;5091085;28;20062;-87
2023/03/01 09:00:11;;;;;;;18.98;15.00;;;2.50;99.90;;;;;;5090871;28;20048;-86
2023/03/01 09:02:38;;;;;;;19.20;14.05;;;2.60;99.90;;;;;;5089256;28;20464;-85
2023/03/01 09:05:05;;;;;;;20.38;14.73;;;2.70;99.90;;;;;;5092158;28;20089;-84
2023/03/01 09:07:31;;;;;;;19.73;14.10;;;2.70;99.90;;;;;;5089088;28;20040;-78
2023/03/01 09:09:56;;;;;;;19.50;14.30;;;2.80;99.90;;;;;;5073579;28;20040;-81
2023/03/01 09:12:22;;;;;;;18.30;14.38;;;2.80;99.90;;;;;;5087006;28;20054;-79
2023/03/01 09:14:48;;;;;;;18.23;14.48;;;2.90;99.90;;;;;;5091767;28;20040;-79
2023/03/01 09:17:13;;;;;;;17.67;13.52;;;3.00;99.90;;;;;;5089939;28;20395;-79
2023/03/01 09:19:39;;;;;;;17.50;13.02;;;3.10;99.90;;;;;;5084165;28;20418;-78
2023/03/01 09:22:05;;;;;;;13.90;12.10;;;3.20;99.90;;;;;;5086616;28;20066;-78
2023/03/01 09:24:30;;;;;;;15.25;11.23;;;3.20;99.90;;;;;;5088354;28;20045;-80
2023/03/01 09:26:56;;;;;;;11.65;9.30;;;3.30;99.90;;;;;;5087817;28;20036;-76
2023/03/01 09:29:22;;;;;;;11.02;9.10;;;3.40;99.90;;;;;;5080665;28;20086;-76
2023/03/01 09:31:48;;;;;;;13.77;9.10;;;3.40;99.90;;;;;;5087987;28;20040;-79
2023/03/01 09:34:16;;;;;;;13.30;9.30;;;3.50;99.90;;;;;;5089740;28;20078;-78
2023/03/01 09:36:41;;;;;;;17.85;10.88;;;3.60;99.90;;;;;;5102166;28;20755;-79
2023/03/01 09:39:07;;;;;;;14.63;11.13;;;3.60;99.90;;;;;;5089388;28;20036;-79
2023/03/01 09:41:32;;;;;;;11.98;8.30;;;3.70;99.90;;;;;;5077984;28;20119;-77
2023/03/01 09:44:13;;;;;;;10.23;7.55;;;3.80;99.90;;;;;;5083813;28;20069;-77
2023/03/01 09:46:43;;;;;;;11.40;8.30;;;3.80;99.90;;;;;;5088757;28;20491;-77
2023/03/01 09:49:31;;;;;;;9.55;6.78;;;3.90;99.90;;;;;;5076680;28;20042;-77
2023/03/01 09:52:23;;;;;;;13.60;6.90;;;3.90;99.90;;;;;;5079831;28;20044;-79
2023/03/01 09:54:54;;;;;;;8.68;5.80;;;3.90;99.90;;;;;;5086407;28;20660;-77
2023/03/01 09:57:48;;;;;;;8.63;5.10;;;4.00;99.90;;;;;;5088938;28;20122;-80
2023/03/01 10:00:17;;;;;;;6.88;5.00;;;4.00;99.90;;;;;;5084427;28;20058;-76
2023/03/01 10:02:55;;;;;;;8.07;4.82;;;4.10;99.90;;;;;;5089009;28;20052;-77
2023/03/01 10:05:42;;;;;;;7.30;4.82;;;4.20;99.90;;;;;;5089275;28;20442;-77
2023/03/01 10:08:07;;;;;;;8.95;4.70;;;4.20;99.90;;;;;;5082540;28;20050;-83
2023/03/01 10:10:38;;;;;;;8.18;5.20;;;4.30;99.90;;;;;;5086422;28;20044;-86
2023/03/01 10:13:14;;;;;;;8.95;5.38;;;4.40;99.90;;;;;;5086777;28;20042;-85
2023/03/01 10:15:47;;;;;;;8.88;5.38;;;4.40;99.90;;;;;;5088910;28;20098;-83
2023/03/01 10:18:20;;;;;;;8.57;5.63;;;4.50;99.90;;;;;;5089503;28;20089;-83
2023/03/01 10:20:59;;;;;;;9.52;5.65;;;4.50;99.90;;;;;;5083235;28;20155;-80
2023/03/01 10:23:27;;;;;;;10.90;5.80;;;4.60;99.90;;;;;;5086734;28;20410;-78
2023/03/01 10:26:12;;;;;;;12.20;6.10;;;4.70;99.90;;;;;;5088297;28;20366;-75
2023/03/01 10:29:08;;;;;;;11.43;6.75;;;4.70;99.90;;;;;;5085955;28;20047;-75
2023/03/01 10:31:48;;;;;;;7.85;5.45;;;4.80;99.90;;;;;;5082649;28;20081;-78
2023/03/01 10:34:18;;;;;;;8.77;5.80;;;4.90;99.90;;;;;;5082984;28;20426;-79
2023/03/01 10:36:47;;;;;;;7.22;5.07;;;4.90;99.90;;;;;;5084088;28;20388;-76
2023/03/01 10:39:19;;;;;;;6.93;5.15;;;4.90;99.90;;;;;;5087913;28;20040;-77
2023/03/01 10:42:20;;;;;;;9.10;5.90;;;5.00;99.90;;;;;;5089473;28;20039;-80
2023/03/01 10:44:48;;;;;;;10.00;5.38;;;5.10;99.90;;;;;;5087951;28;20044;-80
2023/03/01 10:47:23;;;;;;;7.13;4.70;;;5.10;99.90;;;;;;5085378;28;20040;-80
2023/03/01 10:49:56;;;;;;;6.93;4.80;;;5.10;99.90;;;;;;5089420;28;20040;-82
2023/03/01 10:52:41;;;;;;;7.35;5.13;;;5.20;99.90;;;;;;5092398;28;20048;-81
2023/03/01 10:55:13;;;;;;;9.20;5.10;;;5.30;99.90;;;;;;5089135;28;20040;-80
2023/03/01 10:57:42;;;;;;;8.93;5.57;;;5.30;99.90;;;;;;5092093;28;20441;-81
2023/03/01 11:00:22;;;;;;;9.07;6.07;;;5.40;99.90;;;;;;5086046;28;20340;-78
2023/03/01 11:03:12;;;;;;;9.07;6.22;;;5.40;99.90;;;;;;5086951;28;20048;-83
2023/03/01 11:05:53;;;;;;;8.90;5.80;;;5.50;99.90;;;;;;5085948;28;20501;-87
2023/03/01 11:08:34;;;;;;;8.25;5.80;;;5.50;99.90;;;;;;5090235;28;20054;-81
2023/03/01 11:11:24;;;;;;;9.35;6.20;;;5.60;99.90;;;;;;5087660;28;20499;-82
2023/03/01 11:14:12;;;;;;;9.15;6.32;;;5.70;99.90;;;;;;5079799;28;20051;-76
2023/03/01 11:16:40;;;;;;;10.77;7.03;;;5.70;99.90;;;;;;5091742;28;20127;-83
2023/03/01 11:19:09;;;;;;;12.10;7.20;;;5.70;99.90;;;;;;5087035;28;20170;-76
2023/03/01 11:21:39;;;;;;;12.45;8.02;;;5.80;99.90;;;;;;5083997;28;20054;-78
2023/03/01 11:24:10;;;;;;;10.57;7.35;;;5.80;99.90;;;;;;5091014;28;20052;-78
2023/03/01 11:26:41;;;;;;;10.18;7.78;;;5.90;99.90;;;;;;5088636;28;20071;-78
2023/03/01 11:29:43;;;;;;;13.98;8.50;;;5.90;99.90;;;;;;5087294;28;20071;-89
2023/03/01 11:32:13;;;;;;;10.73;7.85;;;6.00;99.90;;;;;;5067540;28;20144;-81
2023/03/01 11:34:50;;;;;;;12.02;8.70;;;6.10;99.90;;;;;;5084867;28;20036;-77
2023/03/01 11:37:28;;;;;;;11.20;8.13;;;6.00;99.90;;;;;;5091105;28;20090;-83
2023/03/01 11:39:58;;;;;;;11.77;8.75;;;6.10;99.90;;;;;;5088787;28;20040;-83
2023/03/01 11:42:39;;;;;;;11.13;7.82;;;6.10;99.90;;;;;;5090573;28;20059;-82
2023/03/01 11:45:10;;;;;;;14.35;8.40;;;6.10;99.90;;;;;;5090868;28;20088;-81
2023/03/01 11:47:56;;;;;;;11.23;8.38;;;6.20;99.90;;;;;;5089530;28;20051;-82
2023/03/01 11:50:28;;;;;;;11.90;8.50;;;6.30;99.90;;;;;;5087286;28;20093;-79
2023/03/01 11:52:56;;;;;;;11.10;8.57;;;6.20;99.90;;;;;;5089970;28;20044;-76
2023/03/01 11:55:57;;;;;;;11.45;8.50;;;6.20;99.90;;;;;;5089960;28;20073;-78
2023/03/01 11:59:00;;;;;;;10.52;8.30;;;6.30;99.90;;;;;;5028288;28;20045;-82
2023/03/01 12:01:32;;;;;;;11.25;8.68;;;6.40;99.90;;;;;;5086182;28;20048;-81
2023/03/01 12:04:35;;;;;;;10.77;8.40;;;6.40;99.90;;;;;;5083097;28;20076;-80
2023/03/01 12:07:09;;;;;;;10.73;7.60;;;6.40;99.90;;;;;;5083803;28;20049;-79
2023/03/01 12:09:58;;;;;;;11.52;8.30;;;6.40;99.90;;;;;;5071216;28;20048;-79
2023/03/01 12:12:30;;;;;;;10.20;7.97;;;6.50;99.90;;;;;;5071558;28;20147;-79
2023/03/01 12:15:01;;;;;;;11.07;7.88;;;6.50;99.90;;;;;;5072240;28;20240;-79
2023/03/01 12:18:06;;;;;;;9.27;7.28;;;6.60;98.70;;;;;;5072214;28;20395;-79
2023/03/01 12:21:04;;;;;;;10.18;7.53;;;6.60;98.30;;;;;;5070513;28;20155;-79
2023/03/01 12:23:47;;;;;;;9.48;7.88;;;6.60;96.50;;;;;;5092434;28;20052;-79
2023/03/01 12:26:22;;;;;;;12.23;8.07;;;6.60;98.70;;;;;;5071388;28;20048;-79
2023/03/01 12:28:55;;;;;;;10.95;8.80;;;6.70;99.90;;;;;;5072530;28;20047;-79
2023/03/01 12:31:40;;;;;;;9.45;7.63;;;6.80;99.90;;;;;;5071776;28;20055;-79
2023/03/01 12:34:45;;;;;;;9.50;7.50;;;6.80;99.90;;;;;;5082871;28;20074;-79
2023/03/01 12:37:42;;;;;;;10.63;8.40;;;6.90;99.90;;;;;;5090584;28;20130;-79
2023/03/01 12:40:55;;;;;;;10.43;8.65;;;7.10;99.30;;;;;;5089918;28;20527;-79
2023/03/01 12:43:45;;;;;;;10.15;8.00;;;7.10;97.90;;;;;;5086608;28;20055;-79
2023/03/01 12:46:33;;;;;;;11.57;8.88;;;7.10;97.20;;;;;;5070146;28;20044;-79
2023/03/01 12:49:26;;;;;;;11.93;9.40;;;7.10;97.10;;;;;;5070306;28;20504;-79
2023/03/01 12:52:00;;;;;;;10.80;8.38;;;7.10;97.40;;;;;;5079189;28;20044;-79
2023/03/01 12:54:32;;;;;;;13.02;8.90;;;7.10;96.70;;;;;;5090906;28;20771;-79
2023/03/01 12:57:23;;;;;;;12.40;9.30;;;7.10;96.70;;;;;;5091864;28;20468;-79
2023/03/01 13:00:26;;;;;;;12.73;8.45;;;7.20;96.70;;;;;;5090751;28;20055;-79